sensor_id;sensor_type;location;lat;lon;timestamp;temperature;humidity
36654;DHT22;22650;49.350;20.898;2023-07-20T00:00:21;18.20;99.90
36654;DHT22;22650;49.350;20.898;2023-07-20T00:03:10;18.20;99.90
36654;DHT22;22650;49.350;20.898;2023-07-20T00:05:45;18.20;99.90
36654;DHT22;22650;49.350;20.898;2023-07-20T00:08:20;18.10;99.90
36654;DHT22;22650;49.350;20.898;2023-07-20T00:10:54;18.20;99.90
36654;DHT22;22650;49.350;20.898;2023-07-20T00:13:28;18.20;99.90
36654;DHT22;22650;49.350;20.898;2023-07-20T00:16:02;18.10;99.90
36654;DHT22;22650;49.350;20.898;2023-07-20T00:18:36;18.10;99.90
36654;DHT22;22650;49.350;20.898;2023-07-20T00:21:10;18.20;99.90
36654;DHT22;22650;49.350;20.898;2023-07-20T00:23:45;18.10;99.90
36654;DHT22;22650;49.350;20.898;2023-07-20T00:26:20;18.10;99.90
36654;DHT22;22650;49.350;20.898;2023-07-20T00:28:54;18.10;99.90
36654;DHT22;22650;49.350;20.898;2023-07-20T00:31:28;18.00;99.90
36654;DHT22;22650;49.350;20.898;2023-07-20T00:34:02;17.90;99.90
36654;DHT22;22650;49.350;20.898;2023-07-20T00:36:36;17.80;99.90
36654;DHT22;22650;49.350;20.898;2023-07-20T00:39:11;17.80;99.90
36654;DHT22;22650;49.350;20.898;2023-07-20T00:41:45;17.80;99.90
36654;DHT22;22650;49.350;20.898;2023-07-20T00:44:19;17.70;99.90
36654;DHT22;22650;49.350;20.898;2023-07-20T00:46:52;17.70;99.90
36654;DHT22;22650;49.350;20.898;2023-07-20T00:49:26;17.70;99.90
36654;DHT22;22650;49.350;20.898;2023-07-20T00:52:00;17.70;99.90
36654;DHT22;22650;49.350;20.898;2023-07-20T00:54:37;17.70;99.90
36654;DHT22;22650;49.350;20.898;2023-07-20T00:57:13;17.70;99.90
36654;DHT22;22650;49.350;20.898;2023-07-20T00:59:47;17.60;99.90
36654;DHT22;22650;49.350;20.898;2023-07-20T01:02:22;17.60;99.90
36654;DHT22;22650;49.350;20.898;2023-07-20T01:04:56;17.60;99.90
36654;DHT22;22650;49.350;20.898;2023-07-20T01:07:32;17.50;99.90
36654;DHT22;22650;49.350;20.898;2023-07-20T01:10:20;17.50;99.90
36654;DHT22;22650;49.350;20.898;2023-07-20T01:12:57;17.50;99.90
36654;DHT22;22650;49.350;20.898;2023-07-20T01:15:33;17.50;99.90
36654;DHT22;22650;49.350;20.898;2023-07-20T01:18:07;17.50;99.90
36654;DHT22;22650;49.350;20.898;2023-07-20T01:20:41;17.50;99.90
36654;DHT22;22650;49.350;20.898;2023-07-20T01:26:46;17.40;99.90
36654;DHT22;22650;49.350;20.898;2023-07-20T01:29:38;17.40;99.90
36654;DHT22;22650;49.350;20.898;2023-07-20T01:32:22;17.30;99.90
36654;DHT22;22650;49.350;20.898;2023-07-20T01:34:58;17.30;99.90
36654;DHT22;22650;49.350;20.898;2023-07-20T01:37:34;17.30;99.90
36654;DHT22;22650;49.350;20.898;2023-07-20T01:40:09;17.30;99.90
36654;DHT22;22650;49.350;20.898;2023-07-20T01:42:45;17.30;99.90
36654;DHT22;22650;49.350;20.898;2023-07-20T01:45:19;17.30;99.90
36654;DHT22;22650;49.350;20.898;2023-07-20T01:47:55;17.30;99.90
36654;DHT22;22650;49.350;20.898;2023-07-20T01:50:28;17.30;99.90
36654;DHT22;22650;49.350;20.898;2023-07-20T01:53:03;17.30;99.90
36654;DHT22;22650;49.350;20.898;2023-07-20T01:55:37;17.30;99.90
36654;DHT22;22650;49.350;20.898;2023-07-20T01:58:11;17.30;99.90
36654;DHT22;22650;49.350;20.898;2023-07-20T02:00:45;17.30;99.90
36654;DHT22;22650;49.350;20.898;2023-07-20T02:03:20;17.30;99.90
36654;DHT22;22650;49.350;20.898;2023-07-20T02:05:56;17.30;99.90
36654;DHT22;22650;49.350;20.898;2023-07-20T02:08:31;17.30;99.90
36654;DHT22;22650;49.350;20.898;2023-07-20T02:11:05;17.30;99.90
36654;DHT22;22650;49.350;20.898;2023-07-20T02:13:38;17.20;99.90
36654;DHT22;22650;49.350;20.898;2023-07-20T02:16:12;17.30;99.90
36654;DHT22;22650;49.350;20.898;2023-07-20T02:18:48;17.20;99.90
36654;DHT22;22650;49.350;20.898;2023-07-20T02:21:21;17.20;99.90
36654;DHT22;22650;49.350;20.898;2023-07-20T02:23:55;17.20;99.90
36654;DHT22;22650;49.350;20.898;2023-07-20T02:26:29;17.20;99.90
36654;DHT22;22650;49.350;20.898;2023-07-20T02:29:04;17.10;99.90
36654;DHT22;22650;49.350;20.898;2023-07-20T02:31:39;17.10;99.90
36654;DHT22;22650;49.350;20.898;2023-07-20T02:34:17;17.10;99.90
36654;DHT22;22650;49.350;20.898;2023-07-20T02:36:55;17.10;99.90
36654;DHT22;22650;49.350;20.898;2023-07-20T02:39:33;17.00;99.90
36654;DHT22;22650;49.350;20.898;2023-07-20T02:42:14;17.00;99.90
36654;DHT22;22650;49.350;20.898;2023-07-20T02:45:18;16.90;99.90
36654;DHT22;22650;49.350;20.898;2023-07-20T02:47:54;17.00;99.90
36654;DHT22;22650;49.350;20.898;2023-07-20T02:50:34;17.00;99.90
36654;DHT22;22650;49.350;20.898;2023-07-20T02:53:09;17.00;99.90
36654;DHT22;22650;49.350;20.898;2023-07-20T02:55:43;17.00;99.90
36654;DHT22;22650;49.350;20.898;2023-07-20T02:58:17;16.90;99.90
36654;DHT22;22650;49.350;20.898;2023-07-20T03:00:52;17.00;99.90
36654;DHT22;22650;49.350;20.898;2023-07-20T03:03:25;17.00;99.90
36654;DHT22;22650;49.350;20.898;2023-07-20T03:06:01;17.00;99.90
36654;DHT22;22650;49.350;20.898;2023-07-20T03:08:35;17.00;99.90
36654;DHT22;22650;49.350;20.898;2023-07-20T03:11:09;17.00;99.90
36654;DHT22;22650;49.350;20.898;2023-07-20T03:13:44;16.90;99.90
36654;DHT22;22650;49.350;20.898;2023-07-20T03:16:19;17.00;99.90
36654;DHT22;22650;49.350;20.898;2023-07-20T03:18:53;17.00;99.90
36654;DHT22;22650;49.350;20.898;2023-07-20T03:21:31;17.00;99.90
36654;DHT22;22650;49.350;20.898;2023-07-20T03:24:06;17.00;99.90
36654;DHT22;22650;49.350;20.898;2023-07-20T03:26:39;17.00;99.90
36654;DHT22;22650;49.350;20.898;2023-07-20T03:29:13;17.00;99.90
36654;DHT22;22650;49.350;20.898;2023-07-20T03:31:49;17.00;99.90
36654;DHT22;22650;49.350;20.898;2023-07-20T03:34:23;17.00;99.90
36654;DHT22;22650;49.350;20.898;2023-07-20T03:36:58;17.00;99.90
36654;DHT22;22650;49.350;20.898;2023-07-20T03:39:32;17.10;99.90
36654;DHT22;22650;49.350;20.898;2023-07-20T03:42:08;17.00;99.90
36654;DHT22;22650;49.350;20.898;2023-07-20T03:44:42;17.10;99.90
36654;DHT22;22650;49.350;20.898;2023-07-20T03:47:15;17.10;99.90
36654;DHT22;22650;49.350;20.898;2023-07-20T03:49:49;17.10;99.90
36654;DHT22;22650;49.350;20.898;2023-07-20T03:52:24;17.10;99.90
36654;DHT22;22650;49.350;20.898;2023-07-20T03:54:58;17.10;99.90
36654;DHT22;22650;49.350;20.898;2023-07-20T03:57:32;17.10;99.90
36654;DHT22;22650;49.350;20.898;2023-07-20T04:00:07;17.10;99.90
36654;DHT22;22650;49.350;20.898;2023-07-20T04:02:44;17.10;99.90
36654;DHT22;22650;49.350;20.898;2023-07-20T04:05:18;17.20;99.90
36654;DHT22;22650;49.350;20.898;2023-07-20T04:07:53;17.20;99.90
36654;DHT22;22650;49.350;20.898;2023-07-20T04:10:27;17.30;99.90
36654;DHT22;22650;49.350;20.898;2023-07-20T04:13:01;17.30;99.90
36654;DHT22;22650;49.350;20.898;2023-07-20T04:15:34;17.30;99.90
36654;DHT22;22650;49.350;20.898;2023-07-20T04:18:08;17.30;99.90
36654;DHT22;22650;49.350;20.898;2023-07-20T04:20:42;17.30;99.90
36654;DHT22;22650;49.350;20.898;2023-07-20T04:23:18;17.40;99.90
36654;DHT22;22650;49.350;20.898;2023-07-20T04:25:52;17.40;99.90
36654;DHT22;22650;49.350;20.898;2023-07-20T04:28:27;17.40;99.90
36654;DHT22;22650;49.350;20.898;2023-07-20T04:31:11;17.40;99.90
36654;DHT22;22650;49.350;20.898;2023-07-20T04:33:45;17.40;99.90
36654;DHT22;22650;49.350;20.898;2023-07-20T04:36:20;17.40;99.90
36654;DHT22;22650;49.350;20.898;2023-07-20T04:38:58;17.40;99.90
36654;DHT22;22650;49.350;20.898;2023-07-20T04:41:39;17.40;99.90
36654;DHT22;22650;49.350;20.898;2023-07-20T04:44:14;17.40;99.90
36654;DHT22;22650;49.350;20.898;2023-07-20T04:46:48;17.40;99.90
36654;DHT22;22650;49.350;20.898;2023-07-20T04:49:23;17.40;99.90
36654;DHT22;22650;49.350;20.898;2023-07-20T04:51:58;17.40;99.90
36654;DHT22;22650;49.350;20.898;2023-07-20T04:54:38;17.50;99.90
36654;DHT22;22650;49.350;20.898;2023-07-20T04:57:17;17.50;99.90
36654;DHT22;22650;49.350;20.898;2023-07-20T04:59:55;17.50;99.90
36654;DHT22;22650;49.350;20.898;2023-07-20T05:03:05;17.60;99.90
36654;DHT22;22650;49.350;20.898;2023-07-20T05:06:13;17.60;99.90
36654;DHT22;22650;49.350;20.898;2023-07-20T05:09:57;17.60;99.90
36654;DHT22;22650;49.350;20.898;2023-07-20T05:21:54;17.60;99.90
36654;DHT22;22650;49.350;20.898;2023-07-20T06:04:40;18.50;99.90
36654;DHT22;22650;49.350;20.898;2023-07-20T06:07:15;18.70;99.90
36654;DHT22;22650;49.350;20.898;2023-07-20T06:09:54;18.80;99.90
36654;DHT22;22650;49.350;20.898;2023-07-20T06:12:38;18.90;99.90
36654;DHT22;22650;49.350;20.898;2023-07-20T06:15:27;18.90;99.90
36654;DHT22;22650;49.350;20.898;2023-07-20T06:18:02;19.10;99.90
36654;DHT22;22650;49.350;20.898;2023-07-20T06:20:38;19.10;99.90
36654;DHT22;22650;49.350;20.898;2023-07-20T06:23:14;19.20;99.90
36654;DHT22;22650;49.350;20.898;2023-07-20T06:25:51;19.20;99.90
36654;DHT22;22650;49.350;20.898;2023-07-20T06:28:51;19.40;99.90
36654;DHT22;22650;49.350;20.898;2023-07-20T06:31:25;19.50;99.90
36654;DHT22;22650;49.350;20.898;2023-07-20T06:33:59;19.60;99.90
36654;DHT22;22650;49.350;20.898;2023-07-20T06:36:36;19.70;99.90
36654;DHT22;22650;49.350;20.898;2023-07-20T06:39:11;19.80;99.90
36654;DHT22;22650;49.350;20.898;2023-07-20T06:41:49;19.90;99.90
36654;DHT22;22650;49.350;20.898;2023-07-20T06:44:27;20.00;99.90
36654;DHT22;22650;49.350;20.898;2023-07-20T06:47:01;20.10;99.90
36654;DHT22;22650;49.350;20.898;2023-07-20T06:49:37;20.30;99.90
36654;DHT22;22650;49.350;20.898;2023-07-20T06:52:18;20.40;99.90
36654;DHT22;22650;49.350;20.898;2023-07-20T06:54:53;20.40;99.90
36654;DHT22;22650;49.350;20.898;2023-07-20T06:57:36;20.50;99.90
36654;DHT22;22650;49.350;20.898;2023-07-20T07:00:12;20.50;99.90
36654;DHT22;22650;49.350;20.898;2023-07-20T07:02:47;20.50;99.90
36654;DHT22;22650;49.350;20.898;2023-07-20T07:05:22;20.50;99.90
36654;DHT22;22650;49.350;20.898;2023-07-20T07:08:07;20.50;99.90
36654;DHT22;22650;49.350;20.898;2023-07-20T07:10:43;20.50;99.90
36654;DHT22;22650;49.350;20.898;2023-07-20T07:13:19;20.50;99.90
36654;DHT22;22650;49.350;20.898;2023-07-20T07:16:21;20.50;99.90
36654;DHT22;22650;49.350;20.898;2023-07-20T07:19:00;20.50;99.90
36654;DHT22;22650;49.350;20.898;2023-07-20T07:21:39;20.50;99.90
36654;DHT22;22650;49.350;20.898;2023-07-20T07:25:33;20.60;99.90
36654;DHT22;22650;49.350;20.898;2023-07-20T07:28:10;20.70;99.90
36654;DHT22;22650;49.350;20.898;2023-07-20T07:37:58;20.80;99.90
36654;DHT22;22650;49.350;20.898;2023-07-20T07:51:24;20.80;99.90
36654;DHT22;22650;49.350;20.898;2023-07-20T08:18:38;22.00;99.90
36654;DHT22;22650;49.350;20.898;2023-07-20T08:21:37;22.40;99.90
36654;DHT22;22650;49.350;20.898;2023-07-20T08:42:10;23.50;99.90
36654;DHT22;22650;49.350;20.898;2023-07-20T08:44:58;23.70;99.90
36654;DHT22;22650;49.350;20.898;2023-07-20T08:47:39;23.80;99.90
36654;DHT22;22650;49.350;20.898;2023-07-20T08:51:06;24.10;99.90
36654;DHT22;22650;49.350;20.898;2023-07-20T08:54:38;24.40;99.90
36654;DHT22;22650;49.350;20.898;2023-07-20T09:06:23;24.90;99.90
36654;DHT22;22650;49.350;20.898;2023-07-20T09:09:28;25.10;99.90
36654;DHT22;22650;49.350;20.898;2023-07-20T09:12:19;25.30;99.90
36654;DHT22;22650;49.350;20.898;2023-07-20T09:15:29;25.40;99.90
36654;DHT22;22650;49.350;20.898;2023-07-20T09:18:05;25.30;97.30
36654;DHT22;22650;49.350;20.898;2023-07-20T09:20:46;25.20;97.40
36654;DHT22;22650;49.350;20.898;2023-07-20T09:23:42;25.10;97.60
36654;DHT22;22650;49.350;20.898;2023-07-20T09:26:16;25.10;98.70
36654;DHT22;22650;49.350;20.898;2023-07-20T09:28:53;25.00;98.80
36654;DHT22;22650;49.350;20.898;2023-07-20T09:31:28;25.10;99.20
36654;DHT22;22650;49.350;20.898;2023-07-20T09:34:12;25.20;99.90
36654;DHT22;22650;49.350;20.898;2023-07-20T09:37:06;25.40;99.90
36654;DHT22;22650;49.350;20.898;2023-07-20T09:39:56;25.50;97.40
36654;DHT22;22650;49.350;20.898;2023-07-20T09:42:35;25.60;95.30
36654;DHT22;22650;49.350;20.898;2023-07-20T09:45:23;25.40;94.40
36654;DHT22;22650;49.350;20.898;2023-07-20T09:48:17;25.60;96.20
36654;DHT22;22650;49.350;20.898;2023-07-20T09:51:11;25.90;98.50
36654;DHT22;22650;49.350;20.898;2023-07-20T09:54:15;26.10;95.30
36654;DHT22;22650;49.350;20.898;2023-07-20T09:57:30;26.20;90.40
36654;DHT22;22650;49.350;20.898;2023-07-20T10:04:12;26.30;92.10
36654;DHT22;22650;49.350;20.898;2023-07-20T10:07:15;26.50;90.90
36654;DHT22;22650;49.350;20.898;2023-07-20T10:09:53;26.60;89.30
36654;DHT22;22650;49.350;20.898;2023-07-20T10:12:43;26.90;90.10
36654;DHT22;22650;49.350;20.898;2023-07-20T10:16:06;27.10;84.70
36654;DHT22;22650;49.350;20.898;2023-07-20T10:18:49;27.20;85.40
36654;DHT22;22650;49.350;20.898;2023-07-20T10:21:26;27.40;86.80
36654;DHT22;22650;49.350;20.898;2023-07-20T10:24:05;27.60;87.20
36654;DHT22;22650;49.350;20.898;2023-07-20T10:26:40;27.40;79.90
36654;DHT22;22650;49.350;20.898;2023-07-20T10:29:16;27.30;81.40
36654;DHT22;22650;49.350;20.898;2023-07-20T10:31:54;27.40;84.50
36654;DHT22;22650;49.350;20.898;2023-07-20T10:34:34;27.30;82.20
36654;DHT22;22650;49.350;20.898;2023-07-20T10:37:54;27.40;83.40
36654;DHT22;22650;49.350;20.898;2023-07-20T10:41:34;27.70;81.40
36654;DHT22;22650;49.350;20.898;2023-07-20T10:44:13;28.20;81.20
36654;DHT22;22650;49.350;20.898;2023-07-20T11:04:40;29.80;75.10
36654;DHT22;22650;49.350;20.898;2023-07-20T11:15:46;30.20;74.10
36654;DHT22;22650;49.350;20.898;2023-07-20T11:18:20;30.30;69.40
36654;DHT22;22650;49.350;20.898;2023-07-20T11:37:00;29.90;69.60
36654;DHT22;22650;49.350;20.898;2023-07-20T11:40:19;29.70;69.40
36654;DHT22;22650;49.350;20.898;2023-07-20T11:43:39;29.60;69.80
36654;DHT22;22650;49.350;20.898;2023-07-20T11:46:17;29.40;69.40
36654;DHT22;22650;49.350;20.898;2023-07-20T11:49:55;29.50;71.70
36654;DHT22;22650;49.350;20.898;2023-07-20T11:54:14;29.60;73.40
36654;DHT22;22650;49.350;20.898;2023-07-20T11:57:05;29.90;73.70
36654;DHT22;22650;49.350;20.898;2023-07-20T11:59:52;30.10;73.60
36654;DHT22;22650;49.350;20.898;2023-07-20T12:15:32;30.10;70.00
36654;DHT22;22650;49.350;20.898;2023-07-20T12:18:06;29.80;68.00
36654;DHT22;22650;49.350;20.898;2023-07-20T12:28:06;29.50;72.40
36654;DHT22;22650;49.350;20.898;2023-07-20T12:30:47;29.60;71.30
36654;DHT22;22650;49.350;20.898;2023-07-20T12:41:55;29.60;67.00
36654;DHT22;22650;49.350;20.898;2023-07-20T12:44:49;29.40;68.80
36654;DHT22;22650;49.350;20.898;2023-07-20T12:48:29;29.30;71.40
36654;DHT22;22650;49.350;20.898;2023-07-20T12:51:30;29.20;71.00
36654;DHT22;22650;49.350;20.898;2023-07-20T12:54:36;29.10;70.10
36654;DHT22;22650;49.350;20.898;2023-07-20T13:01:24;29.50;69.80
36654;DHT22;22650;49.350;20.898;2023-07-20T13:04:00;29.60;72.50
36654;DHT22;22650;49.350;20.898;2023-07-20T13:06:37;29.60;69.40
36654;DHT22;22650;49.350;20.898;2023-07-20T13:09:12;29.50;69.90
36654;DHT22;22650;49.350;20.898;2023-07-20T13:11:48;29.50;71.30
36654;DHT22;22650;49.350;20.898;2023-07-20T13:14:33;29.50;69.20
36654;DHT22;22650;49.350;20.898;2023-07-20T13:18:31;29.50;73.20
36654;DHT22;22650;49.350;20.898;2023-07-20T13:22:10;29.50;67.60
36654;DHT22;22650;49.350;20.898;2023-07-20T13:28:09;29.60;65.00
36654;DHT22;22650;49.350;20.898;2023-07-20T13:30:43;29.50;67.30
36654;DHT22;22650;49.350;20.898;2023-07-20T13:33:18;29.40;67.40
36654;DHT22;22650;49.350;20.898;2023-07-20T13:35:52;29.20;66.50
36654;DHT22;22650;49.350;20.898;2023-07-20T13:38:28;29.20;66.30
36654;DHT22;22650;49.350;20.898;2023-07-20T13:41:02;29.20;67.20
36654;DHT22;22650;49.350;20.898;2023-07-20T13:43:36;29.40;66.70
36654;DHT22;22650;49.350;20.898;2023-07-20T13:46:10;29.30;65.90
36654;DHT22;22650;49.350;20.898;2023-07-20T13:48:48;29.20;66.70
36654;DHT22;22650;49.350;20.898;2023-07-20T13:51:44;29.20;65.70
36654;DHT22;22650;49.350;20.898;2023-07-20T13:54:19;29.20;67.30
36654;DHT22;22650;49.350;20.898;2023-07-20T13:56:56;29.20;68.40
36654;DHT22;22650;49.350;20.898;2023-07-20T13:59:30;29.10;67.20
36654;DHT22;22650;49.350;20.898;2023-07-20T14:02:05;28.80;65.10
36654;DHT22;22650;49.350;20.898;2023-07-20T14:04:44;28.50;65.60
36654;DHT22;22650;49.350;20.898;2023-07-20T14:07:22;28.20;65.80
36654;DHT22;22650;49.350;20.898;2023-07-20T14:09:59;28.10;66.20
36654;DHT22;22650;49.350;20.898;2023-07-20T14:12:36;28.00;67.40
36654;DHT22;22650;49.350;20.898;2023-07-20T14:15:13;27.90;67.80
36654;DHT22;22650;49.350;20.898;2023-07-20T14:18:09;27.80;68.10
36654;DHT22;22650;49.350;20.898;2023-07-20T14:20:51;27.60;68.20
36654;DHT22;22650;49.350;20.898;2023-07-20T14:23:29;27.50;69.10
36654;DHT22;22650;49.350;20.898;2023-07-20T14:26:09;27.40;70.00
36654;DHT22;22650;49.350;20.898;2023-07-20T14:28:47;27.30;70.40
36654;DHT22;22650;49.350;20.898;2023-07-20T14:31:23;27.10;71.00
36654;DHT22;22650;49.350;20.898;2023-07-20T14:33:57;27.00;70.00
36654;DHT22;22650;49.350;20.898;2023-07-20T14:36:31;26.70;69.70
36654;DHT22;22650;49.350;20.898;2023-07-20T14:39:07;26.70;70.90
36654;DHT22;22650;49.350;20.898;2023-07-20T14:41:42;26.60;70.40
36654;DHT22;22650;49.350;20.898;2023-07-20T14:44:16;26.50;71.80
36654;DHT22;22650;49.350;20.898;2023-07-20T14:46:50;26.40;71.60
36654;DHT22;22650;49.350;20.898;2023-07-20T14:49:44;26.40;72.00
36654;DHT22;22650;49.350;20.898;2023-07-20T14:52:18;26.30;72.40
36654;DHT22;22650;49.350;20.898;2023-07-20T14:54:52;26.20;70.70
36654;DHT22;22650;49.350;20.898;2023-07-20T14:57:27;26.20;70.10
36654;DHT22;22650;49.350;20.898;2023-07-20T15:00:01;26.00;71.30
36654;DHT22;22650;49.350;20.898;2023-07-20T15:02:39;26.00;70.90
36654;DHT22;22650;49.350;20.898;2023-07-20T15:05:20;25.80;70.30
36654;DHT22;22650;49.350;20.898;2023-07-20T15:07:54;25.70;69.80
36654;DHT22;22650;49.350;20.898;2023-07-20T15:10:28;25.60;69.50
36654;DHT22;22650;49.350;20.898;2023-07-20T15:13:04;25.30;68.40
36654;DHT22;22650;49.350;20.898;2023-07-20T15:15:37;25.20;68.10
36654;DHT22;22650;49.350;20.898;2023-07-20T15:18:11;25.10;69.40
36654;DHT22;22650;49.350;20.898;2023-07-20T15:20:45;25.10;70.40
36654;DHT22;22650;49.350;20.898;2023-07-20T15:23:20;25.00;70.00
36654;DHT22;22650;49.350;20.898;2023-07-20T15:25:54;24.80;70.60
36654;DHT22;22650;49.350;20.898;2023-07-20T15:28:29;24.80;71.40
36654;DHT22;22650;49.350;20.898;2023-07-20T15:31:04;24.70;70.90
36654;DHT22;22650;49.350;20.898;2023-07-20T15:33:38;24.70;71.90
36654;DHT22;22650;49.350;20.898;2023-07-20T15:36:12;24.70;73.30
36654;DHT22;22650;49.350;20.898;2023-07-20T15:38:46;24.70;73.00
36654;DHT22;22650;49.350;20.898;2023-07-20T15:41:20;24.70;73.00
36654;DHT22;22650;49.350;20.898;2023-07-20T15:43:57;24.70;74.10
36654;DHT22;22650;49.350;20.898;2023-07-20T15:46:45;24.80;73.60
36654;DHT22;22650;49.350;20.898;2023-07-20T15:49:21;24.90;74.80
36654;DHT22;22650;49.350;20.898;2023-07-20T15:51:56;25.00;74.10
36654;DHT22;22650;49.350;20.898;2023-07-20T15:54:30;25.00;73.20
36654;DHT22;22650;49.350;20.898;2023-07-20T15:57:05;25.00;73.60
36654;DHT22;22650;49.350;20.898;2023-07-20T15:59:42;25.10;76.50
36654;DHT22;22650;49.350;20.898;2023-07-20T16:02:15;25.10;75.40
36654;DHT22;22650;49.350;20.898;2023-07-20T16:04:49;25.10;77.00
36654;DHT22;22650;49.350;20.898;2023-07-20T16:07:25;25.00;79.20
36654;DHT22;22650;49.350;20.898;2023-07-20T16:09:59;25.00;80.60
36654;DHT22;22650;49.350;20.898;2023-07-20T16:12:34;25.00;80.90
36654;DHT22;22650;49.350;20.898;2023-07-20T16:15:11;25.00;79.70
36654;DHT22;22650;49.350;20.898;2023-07-20T16:17:44;25.10;77.30
36654;DHT22;22650;49.350;20.898;2023-07-20T16:20:18;25.10;78.30
36654;DHT22;22650;49.350;20.898;2023-07-20T16:22:52;25.20;77.30
36654;DHT22;22650;49.350;20.898;2023-07-20T16:25:25;25.20;76.30
36654;DHT22;22650;49.350;20.898;2023-07-20T16:27:59;25.20;76.60
36654;DHT22;22650;49.350;20.898;2023-07-20T16:30:34;25.20;76.10
36654;DHT22;22650;49.350;20.898;2023-07-20T16:33:08;25.10;75.30
36654;DHT22;22650;49.350;20.898;2023-07-20T16:35:45;25.10;75.70
36654;DHT22;22650;49.350;20.898;2023-07-20T16:38:23;25.00;75.70
36654;DHT22;22650;49.350;20.898;2023-07-20T16:51:01;24.70;79.80
36654;DHT22;22650;49.350;20.898;2023-07-20T16:54:03;24.70;75.80
36654;DHT22;22650;49.350;20.898;2023-07-20T17:17:13;24.10;78.80
36654;DHT22;22650;49.350;20.898;2023-07-20T17:24:58;23.90;78.60
36654;DHT22;22650;49.350;20.898;2023-07-20T17:28:29;23.90;78.80
36654;DHT22;22650;49.350;20.898;2023-07-20T17:31:13;23.90;79.00
36654;DHT22;22650;49.350;20.898;2023-07-20T17:42:52;23.20;78.80
36654;DHT22;22650;49.350;20.898;2023-07-20T17:45:33;22.90;78.10
36654;DHT22;22650;49.350;20.898;2023-07-20T17:48:07;22.60;77.60
36654;DHT22;22650;49.350;20.898;2023-07-20T17:50:43;22.40;77.80
36654;DHT22;22650;49.350;20.898;2023-07-20T17:53:17;22.20;78.30
36654;DHT22;22650;49.350;20.898;2023-07-20T17:55:51;22.10;78.70
36654;DHT22;22650;49.350;20.898;2023-07-20T17:58:30;22.00;79.00
36654;DHT22;22650;49.350;20.898;2023-07-20T18:01:10;21.90;80.60
36654;DHT22;22650;49.350;20.898;2023-07-20T18:03:44;21.80;82.90
36654;DHT22;22650;49.350;20.898;2023-07-20T18:06:20;21.70;83.90
36654;DHT22;22650;49.350;20.898;2023-07-20T18:08:56;21.60;85.60
36654;DHT22;22650;49.350;20.898;2023-07-20T18:11:38;21.50;86.30
36654;DHT22;22650;49.350;20.898;2023-07-20T18:14:22;21.40;88.30
36654;DHT22;22650;49.350;20.898;2023-07-20T18:16:59;21.30;91.20
36654;DHT22;22650;49.350;20.898;2023-07-20T18:19:46;21.10;91.00
36654;DHT22;22650;49.350;20.898;2023-07-20T18:22:22;21.10;92.30
36654;DHT22;22650;49.350;20.898;2023-07-20T18:24:56;20.90;95.90
36654;DHT22;22650;49.350;20.898;2023-07-20T18:27:31;20.80;98.40
36654;DHT22;22650;49.350;20.898;2023-07-20T18:30:09;20.60;99.40
36654;DHT22;22650;49.350;20.898;2023-07-20T18:32:59;20.50;99.10
36654;DHT22;22650;49.350;20.898;2023-07-20T18:35:39;20.40;99.90
36654;DHT22;22650;49.350;20.898;2023-07-20T18:38:18;20.20;99.90
36654;DHT22;22650;49.350;20.898;2023-07-20T18:41:17;20.00;99.90
36654;DHT22;22650;49.350;20.898;2023-07-20T18:44:38;19.90;99.90
36654;DHT22;22650;49.350;20.898;2023-07-20T18:47:54;19.70;99.90
36654;DHT22;22650;49.350;20.898;2023-07-20T18:51:47;19.50;99.90
36654;DHT22;22650;49.350;20.898;2023-07-20T18:55:13;19.30;99.90
36654;DHT22;22650;49.350;20.898;2023-07-20T18:57:59;19.20;99.90
36654;DHT22;22650;49.350;20.898;2023-07-20T19:02:14;19.00;99.90
36654;DHT22;22650;49.350;20.898;2023-07-20T19:05:20;18.80;99.90
36654;DHT22;22650;49.350;20.898;2023-07-20T19:08:28;18.70;99.90
36654;DHT22;22650;49.350;20.898;2023-07-20T19:11:20;18.60;99.90
36654;DHT22;22650;49.350;20.898;2023-07-20T19:14:29;18.50;99.90
36654;DHT22;22650;49.350;20.898;2023-07-20T19:17:29;18.30;99.90
36654;DHT22;22650;49.350;20.898;2023-07-20T19:33:34;17.70;99.90
36654;DHT22;22650;49.350;20.898;2023-07-20T20:05:03;16.60;99.90
36654;DHT22;22650;49.350;20.898;2023-07-20T20:07:59;16.50;99.90
36654;DHT22;22650;49.350;20.898;2023-07-20T20:10:37;16.30;99.90
36654;DHT22;22650;49.350;20.898;2023-07-20T20:13:44;16.30;99.90
36654;DHT22;22650;49.350;20.898;2023-07-20T20:16:21;16.20;99.90
36654;DHT22;22650;49.350;20.898;2023-07-20T20:18:57;16.10;99.90
36654;DHT22;22650;49.350;20.898;2023-07-20T20:21:34;16.00;99.90
36654;DHT22;22650;49.350;20.898;2023-07-20T20:24:09;15.90;99.90
36654;DHT22;22650;49.350;20.898;2023-07-20T20:26:44;15.80;99.90
36654;DHT22;22650;49.350;20.898;2023-07-20T20:29:21;15.70;99.90
36654;DHT22;22650;49.350;20.898;2023-07-20T20:31:55;15.70;99.90
36654;DHT22;22650;49.350;20.898;2023-07-20T20:34:29;15.60;99.90
36654;DHT22;22650;49.350;20.898;2023-07-20T20:37:05;15.50;99.90
36654;DHT22;22650;49.350;20.898;2023-07-20T20:39:39;15.50;99.90
36654;DHT22;22650;49.350;20.898;2023-07-20T20:42:13;15.40;99.90
36654;DHT22;22650;49.350;20.898;2023-07-20T20:44:48;15.30;99.90
36654;DHT22;22650;49.350;20.898;2023-07-20T20:47:22;15.30;99.90
36654;DHT22;22650;49.350;20.898;2023-07-20T20:50:00;15.20;99.90
36654;DHT22;22650;49.350;20.898;2023-07-20T20:52:36;15.10;99.90
36654;DHT22;22650;49.350;20.898;2023-07-20T20:55:11;15.00;99.90
36654;DHT22;22650;49.350;20.898;2023-07-20T20:57:46;15.00;99.90
36654;DHT22;22650;49.350;20.898;2023-07-20T21:00:24;14.90;99.90
36654;DHT22;22650;49.350;20.898;2023-07-20T21:02:58;14.80;99.90
36654;DHT22;22650;49.350;20.898;2023-07-20T21:05:33;14.70;99.90
36654;DHT22;22650;49.350;20.898;2023-07-20T21:08:11;14.70;99.90
36654;DHT22;22650;49.350;20.898;2023-07-20T21:10:46;14.60;99.90
36654;DHT22;22650;49.350;20.898;2023-07-20T21:13:20;14.60;99.90
36654;DHT22;22650;49.350;20.898;2023-07-20T21:15:54;14.50;99.90
36654;DHT22;22650;49.350;20.898;2023-07-20T21:18:28;14.40;99.90
36654;DHT22;22650;49.350;20.898;2023-07-20T21:21:03;14.40;99.90
36654;DHT22;22650;49.350;20.898;2023-07-20T21:23:39;14.30;99.90
36654;DHT22;22650;49.350;20.898;2023-07-20T21:26:13;14.30;99.90
36654;DHT22;22650;49.350;20.898;2023-07-20T21:28:47;14.20;99.90
36654;DHT22;22650;49.350;20.898;2023-07-20T21:31:21;14.20;99.90
36654;DHT22;22650;49.350;20.898;2023-07-20T21:33:56;14.10;99.90
36654;DHT22;22650;49.350;20.898;2023-07-20T21:36:30;14.10;99.90